Time;durP1;ratioP1;P1;durP2;ratioP2;P2;SDS_P1;SDS_P2;PMS_P1;PMS_P2;Temp;Humidity;BMP_temperature;BMP_pressure;BME280_temperature;BME280_humidity;BME280_pressure;Samples;Min_cycle;Max_cycle;Signal;HPM_P1;HPM_P2
2023/05/22 00:02:42;;;;;;;8.98;6.13;;;20.10;92.70;;;;;;10266904;28;20023;-69
2023/05/22 00:07:42;;;;;;;8.32;6.53;;;20.10;92.70;;;;;;10269528;28;20046;-69
2023/05/22 00:12:43;;;;;;;11.93;6.55;;;20.10;92.70;;;;;;10274234;28;20375;-68
2023/05/22 00:17:44;;;;;;;8.40;6.38;;;20.10;92.70;;;;;;10271800;28;20043;-69
2023/05/22 00:22:44;;;;;;;8.32;6.28;;;20.00;92.70;;;;;;10271714;28;20030;-68
2023/05/22 00:27:47;;;;;;;7.72;6.20;;;20.10;92.70;;;;;;10267484;28;20045;-69
2023/05/22 00:32:47;;;;;;;11.27;6.60;;;20.10;92.80;;;;;;10269067;28;20041;-69
2023/05/22 00:37:48;;;;;;;9.75;6.97;;;20.00;92.80;;;;;;10270631;28;20417;-69
2023/05/22 00:42:49;;;;;;;9.38;6.50;;;19.80;92.80;;;;;;10273573;28;20027;-69
2023/05/22 00:47:49;;;;;;;8.20;6.35;;;19.90;92.90;;;;;;10272726;28;20034;-68
2023/05/22 00:52:50;;;;;;;8.38;6.10;;;19.90;92.90;;;;;;10270225;28;20499;-68
2023/05/22 00:57:51;;;;;;;9.80;6.93;;;19.90;92.90;;;;;;10269295;28;20042;-69
2023/05/22 01:02:52;;;;;;;8.65;6.15;;;19.90;93.00;;;;;;10252268;28;20410;-68
2023/05/22 01:07:52;;;;;;;9.35;6.80;;;19.80;92.90;;;;;;10275789;28;20027;-68
2023/05/22 01:13:42;;;;;;;9.88;6.32;;;19.80;92.90;;;;;;10279688;28;20450;-68
2023/05/22 01:19:06;;;;;;;9.85;6.80;;;19.80;93.00;;;;;;10234580;28;20076;-68
2023/05/22 01:24:40;;;;;;;8.00;6.28;;;19.80;93.00;;;;;;10279620;28;20030;-68
2023/05/22 01:29:43;;;;;;;8.68;6.50;;;19.70;92.90;;;;;;10275647;28;20118;-69
2023/05/22 01:34:46;;;;;;;8.32;6.35;;;19.70;92.90;;;;;;10276255;28;20030;-68
2023/05/22 01:39:50;;;;;;;9.77;6.63;;;19.70;92.90;;;;;;10280332;28;20050;-68
2023/05/22 01:44:50;;;;;;;8.52;5.85;;;19.70;93.00;;;;;;10279807;28;20022;-68
2023/05/22 01:49:52;;;;;;;8.65;5.75;;;19.50;93.00;;;;;;10276975;28;20031;-68
2023/05/22 01:55:26;;;;;;;10.10;6.35;;;19.60;93.00;;;;;;10276723;28;20509;-68
2023/05/22 02:00:27;;;;;;;8.65;6.18;;;19.60;93.30;;;;;;10278213;28;20115;-68
2023/05/22 02:05:30;;;;;;;9.35;6.90;;;19.60;93.00;;;;;;10278485;28;20129;-68
2023/05/22 02:10:32;;;;;;;8.73;6.25;;;19.60;93.10;;;;;;10275334;28;20498;-68
2023/05/22 02:15:33;;;;;;;9.80;6.65;;;19.50;93.10;;;;;;10274360;28;20022;-68
2023/05/22 02:20:34;;;;;;;8.73;6.10;;;19.50;93.10;;;;;;10277942;28;20030;-68
2023/05/22 02:25:34;;;;;;;8.88;6.72;;;19.50;93.10;;;;;;10277718;28;20136;-68
2023/05/22 02:30:35;;;;;;;8.52;6.57;;;19.50;93.10;;;;;;10273840;28;20058;-68
2023/05/22 02:35:36;;;;;;;8.52;6.65;;;19.50;93.20;;;;;;10278447;28;20042;-68
2023/05/22 02:40:36;;;;;;;7.80;6.30;;;19.40;93.20;;;;;;10280384;28;20374;-68
2023/05/22 02:45:37;;;;;;;9.27;6.60;;;19.30;93.10;;;;;;10280104;28;20585;-68
2023/05/22 02:50:37;;;;;;;9.25;6.78;;;19.40;93.20;;;;;;10278045;28;20372;-68
2023/05/22 02:55:39;;;;;;;9.18;6.80;;;19.40;93.20;;;;;;10272850;28;20109;-68
2023/05/22 03:00:40;;;;;;;8.63;6.10;;;19.40;93.20;;;;;;10271317;28;20031;-68
2023/05/22 03:05:40;;;;;;;9.55;6.60;;;19.40;93.20;;;;;;10259656;28;20034;-68
2023/05/22 03:10:41;;;;;;;9.35;6.22;;;19.30;93.20;;;;;;10271348;28;20027;-68
2023/05/22 03:15:42;;;;;;;9.25;6.53;;;19.40;93.20;;;;;;10274561;28;20031;-68
2023/05/22 03:20:42;;;;;;;9.73;6.82;;;19.30;93.20;;;;;;10275214;28;20034;-69
2023/05/22 03:25:43;;;;;;;8.73;6.47;;;19.30;93.20;;;;;;10273688;28;20041;-69
2023/05/22 03:30:43;;;;;;;7.65;5.88;;;19.30;93.20;;;;;;10268084;28;20039;-69
2023/05/22 03:35:44;;;;;;;10.50;6.68;;;19.20;93.20;;;;;;10266475;28;20038;-69
2023/05/22 03:40:45;;;;;;;9.55;6.38;;;19.30;93.30;;;;;;10268075;28;20023;-69
2023/05/22 03:45:45;;;;;;;7.78;6.07;;;19.20;93.20;;;;;;10264741;28;20255;-69
2023/05/22 03:50:46;;;;;;;10.45;6.78;;;19.20;93.30;;;;;;10277357;28;20027;-69
2023/05/22 03:55:47;;;;;;;8.43;6.63;;;19.20;93.20;;;;;;10270890;28;20032;-69
2023/05/22 04:00:47;;;;;;;8.07;6.45;;;19.20;93.20;;;;;;10268718;28;20399;-69
2023/05/22 04:05:48;;;;;;;9.07;6.50;;;19.20;93.30;;;;;;10269740;28;20450;-69
2023/05/22 04:10:49;;;;;;;8.55;6.32;;;19.10;93.20;;;;;;10275921;28;20102;-69
2023/05/22 04:15:51;;;;;;;9.63;7.13;;;19.20;93.50;;;;;;10275065;28;20039;-69
2023/05/22 04:20:52;;;;;;;9.32;6.53;;;19.10;93.20;;;;;;10273905;28;20110;-69
2023/05/22 04:25:52;;;;;;;8.38;6.30;;;19.10;93.20;;;;;;10271900;28;20414;-69
2023/05/22 04:30:53;;;;;;;8.70;6.35;;;19.10;93.20;;;;;;10236918;28;20039;-69
2023/05/22 04:35:53;;;;;;;8.35;5.90;;;19.10;93.20;;;;;;10270243;28;20066;-69
2023/05/22 04:40:54;;;;;;;8.10;6.47;;;19.10;93.20;;;;;;10272210;28;20043;-69
2023/05/22 04:45:55;;;;;;;8.40;6.13;;;19.10;93.20;;;;;;10282523;28;20037;-69
2023/05/22 04:50:57;;;;;;;8.88;6.68;;;19.10;93.20;;;;;;10265788;28;20528;-69
2023/05/22 04:55:58;;;;;;;11.23;7.65;;;19.10;93.30;;;;;;10277593;28;20131;-68
2023/05/22 05:00:58;;;;;;;11.00;7.70;;;19.10;93.70;;;;;;10280632;28;20033;-68
2023/05/22 05:05:59;;;;;;;10.13;7.18;;;19.00;93.60;;;;;;10282920;28;20061;-68
2023/05/22 05:11:00;;;;;;;14.50;9.15;;;19.00;93.60;;;;;;10276235;28;20035;-68
2023/05/22 05:16:00;;;;;;;11.65;7.75;;;19.00;93.70;;;;;;10278691;28;20058;-68
2023/05/22 05:21:01;;;;;;;13.57;7.95;;;19.00;93.70;;;;;;10280966;28;20093;-68
2023/05/22 05:26:01;;;;;;;10.77;7.32;;;19.00;93.70;;;;;;10281448;28;20439;-68
2023/05/22 05:31:02;;;;;;;11.23;7.25;;;19.00;93.70;;;;;;10277668;28;20038;-68
2023/05/22 05:36:03;;;;;;;10.82;7.47;;;19.00;93.70;;;;;;10280921;28;20501;-68
2023/05/22 05:41:04;;;;;;;12.05;8.05;;;19.00;93.70;;;;;;10264938;28;20101;-68
2023/05/22 05:46:05;;;;;;;10.43;8.10;;;19.00;93.70;;;;;;10281935;28;20037;-68
2023/05/22 05:51:06;;;;;;;12.57;7.63;;;18.90;93.60;;;;;;10274692;28;20498;-68
2023/05/22 05:56:07;;;;;;;13.00;7.25;;;19.00;93.60;;;;;;10273736;28;20276;-67
2023/05/22 06:01:07;;;;;;;9.80;7.47;;;19.00;93.60;;;;;;10272441;28;20029;-68
2023/05/22 06:06:09;;;;;;;10.27;7.40;;;19.00;93.50;;;;;;10260750;28;20027;-68
2023/05/22 06:11:10;;;;;;;10.20;7.05;;;19.00;93.80;;;;;;10274045;28;20023;-68
2023/05/22 06:16:11;;;;;;;9.00;7.05;;;19.00;93.50;;;;;;10279208;28;20031;-68
2023/05/22 06:21:11;;;;;;;11.00;7.47;;;19.00;93.40;;;;;;10274058;28;20094;-67
2023/05/22 06:26:12;;;;;;;9.18;6.57;;;19.00;93.40;;;;;;10276868;28;20038;-68
2023/05/22 06:31:13;;;;;;;10.18;7.68;;;19.10;93.40;;;;;;10274721;28;21480;-66
2023/05/22 06:36:13;;;;;;;10.20;7.45;;;19.00;93.40;;;;;;10273395;28;20085;-67
2023/05/22 06:41:14;;;;;;;14.15;8.82;;;19.10;93.40;;;;;;10276740;28;20026;-67
2023/05/22 06:46:15;;;;;;;9.88;7.50;;;19.10;93.40;;;;;;10275547;28;20085;-68
2023/05/22 06:51:15;;;;;;;12.00;7.53;;;19.10;93.40;;;;;;10274716;28;20031;-67
2023/05/22 06:56:17;;;;;;;10.32;7.32;;;19.10;93.40;;;;;;10279228;28;20046;-68
2023/05/22 07:01:18;;;;;;;11.23;8.02;;;19.10;93.50;;;;;;10269313;28;20566;-68
2023/05/22 07:06:18;;;;;;;10.10;7.20;;;19.20;93.50;;;;;;10273126;28;20106;-68
2023/05/22 07:11:19;;;;;;;11.48;7.25;;;19.10;93.60;;;;;;10269987;28;20430;-67
2023/05/22 07:16:21;;;;;;;9.18;7.13;;;19.10;93.60;;;;;;10264420;28;20070;-67
2023/05/22 07:21:24;;;;;;;9.10;7.03;;;19.10;93.60;;;;;;10251481;28;20027;-68
2023/05/22 07:26:26;;;;;;;10.40;7.80;;;19.20;93.70;;;;;;10272948;28;20335;-68
2023/05/22 07:31:26;;;;;;;9.50;7.20;;;19.10;93.60;;;;;;10271944;28;20025;-67
2023/05/22 07:36:27;;;;;;;11.00;7.38;;;19.10;93.70;;;;;;10276346;28;20019;-67
2023/05/22 07:41:28;;;;;;;13.23;7.80;;;19.10;93.70;;;;;;10276794;28;20027;-68
2023/05/22 07:46:28;;;;;;;11.27;7.53;;;19.20;93.70;;;;;;10259987;28;20469;-68
2023/05/22 07:51:30;;;;;;;11.18;7.07;;;19.20;93.80;;;;;;10275488;28;20398;-68
2023/05/22 07:56:31;;;;;;;11.80;6.97;;;19.20;93.80;;;;;;10273999;28;20046;-69
2023/05/22 08:01:32;;;;;;;9.40;6.90;;;19.30;93.90;;;;;;10275763;28;20023;-68
2023/05/22 08:06:35;;;;;;;10.43;6.95;;;19.20;93.90;;;;;;10273911;28;20031;-68
2023/05/22 08:11:38;;;;;;;11.15;6.75;;;19.30;93.90;;;;;;10274386;28;20098;-69
2023/05/22 08:16:39;;;;;;;10.23;6.63;;;19.30;93.90;;;;;;10272738;28;20282;-68
2023/05/22 08:21:40;;;;;;;7.50;6.18;;;19.30;93.90;;;;;;10275737;28;20514;-68
2023/05/22 08:26:42;;;;;;;11.50;7.15;;;19.30;93.90;;;;;;10279269;28;20022;-68
2023/05/22 08:31:42;;;;;;;10.35;6.85;;;19.30;94.20;;;;;;10279139;28;20109;-69
2023/05/22 08:36:43;;;;;;;12.20;6.78;;;19.30;94.00;;;;;;10263567;28;20043;-68
2023/05/22 08:41:44;;;;;;;7.82;6.38;;;19.40;94.00;;;;;;10276929;28;20039;-68
2023/05/22 08:46:45;;;;;;;9.10;6.47;;;19.30;94.00;;;;;;10274858;28;20035;-69
2023/05/22 08:51:51;;;;;;;9.60;7.03;;;19.40;94.00;;;;;;10276190;28;20042;-68
2023/05/22 08:56:53;;;;;;;9.73;6.25;;;19.40;94.00;;;;;;10278035;28;20826;-68
2023/05/22 09:01:53;;;;;;;9.75;6.28;;;19.40;94.00;;;;;;10261463;28;20035;-69
2023/05/22 09:06:54;;;;;;;8.18;6.20;;;19.40;94.00;;;;;;10257291;28;20106;-69
2023/05/22 09:11:55;;;;;;;10.07;6.63;;;19.40;94.00;;;;;;10284055;28;20045;-68
2023/05/22 09:16:55;;;;;;;10.95;6.75;;;19.30;94.20;;;;;;10284712;28;20470;-68
2023/05/22 09:22:05;;;;;;;9.90;6.43;;;19.40;94.20;;;;;;10280113;28;20015;-68
2023/05/22 09:27:06;;;;;;;8.20;5.95;;;19.50;94.30;;;;;;10283207;28;20034;-68
2023/05/22 09:32:13;;;;;;;7.30;5.88;;;19.50;94.30;;;;;;10274285;28;20026;-68
2023/05/22 09:37:14;;;;;;;8.02;5.82;;;19.50;94.00;;;;;;10278831;28;20442;-69
2023/05/22 09:42:16;;;;;;;16.33;9.27;;;19.60;93.90;;;;;;10278994;28;20494;-70
2023/05/22 09:47:17;;;;;;;9.52;6.57;;;19.60;94.30;;;;;;10260072;28;20034;-69
2023/05/22 09:52:19;;;;;;;9.43;6.60;;;19.70;94.20;;;;;;10282396;28;20041;-68
2023/05/22 09:57:21;;;;;;;10.57;6.32;;;19.70;94.00;;;;;;10280011;28;20483;-68
2023/05/22 10:02:24;;;;;;;8.32;6.25;;;19.80;94.00;;;;;;10277672;28;20109;-68
2023/05/22 10:07:36;;;;;;;12.55;6.70;;;19.80;93.90;;;;;;10271352;28;20034;-68
2023/05/22 10:12:43;;;;;;;11.15;6.78;;;19.90;93.90;;;;;;10276540;28;20368;-68
2023/05/22 10:17:44;;;;;;;9.75;6.30;;;19.90;93.80;;;;;;10282219;28;20419;-69
2023/05/22 10:22:47;;;;;;;9.35;6.15;;;19.90;93.80;;;;;;10282145;28;20023;-68
2023/05/22 10:27:51;;;;;;;8.63;6.50;;;20.00;93.70;;;;;;10263715;28;20054;-68
2023/05/22 10:33:13;;;;;;;9.43;6.38;;;20.00;94.00;;;;;;10279076;28;20809;-68
2023/05/22 10:38:32;;;;;;;10.23;6.43;;;20.00;93.80;;;;;;10276477;28;20054;-68
2023/05/22 10:43:39;;;;;;;8.00;5.95;;;20.00;93.70;;;;;;10277431;28;20375;-68
2023/05/22 10:48:48;;;;;;;8.95;6.38;;;20.10;93.70;;;;;;10279870;28;20041;-68
2023/05/22 10:53:57;;;;;;;11.90;6.20;;;20.10;93.70;;;;;;10278579;28;20803;-69
2023/05/22 10:59:01;;;;;;;10.23;6.22;;;20.20;93.60;;;;;;10274033;28;20019;-69
2023/05/22 11:04:07;;;;;;;8.30;6.63;;;20.30;93.60;;;;;;10257519;28;20379;-68
2023/05/22 11:09:30;;;;;;;10.20;6.95;;;20.40;93.50;;;;;;10279812;28;20031;-69
2023/05/22 11:14:31;;;;;;;10.07;7.32;;;20.40;93.60;;;;;;10261299;28;20034;-68
2023/05/22 11:19:32;;;;;;;11.57;6.93;;;20.40;93.40;;;;;;10274070;28;20022;-69
2023/05/22 11:24:33;;;;;;;10.20;7.10;;;20.50;93.40;;;;;;10269246;28;20030;-69
2023/05/22 11:29:35;;;;;;;11.55;6.57;;;20.50;93.40;;;;;;10274108;28;20023;-69
2023/05/22 11:34:38;;;;;;;10.63;6.95;;;20.50;93.30;;;;;;10269502;28;20034;-68
2023/05/22 11:39:38;;;;;;;9.23;6.93;;;20.70;93.30;;;;;;10272524;28;20029;-68
2023/05/22 11:44:40;;;;;;;13.05;7.95;;;20.70;93.30;;;;;;10271229;28;20019;-69
2023/05/22 11:49:41;;;;;;;10.50;7.15;;;20.80;93.20;;;;;;10271054;28;20441;-68
2023/05/22 11:54:48;;;;;;;10.82;8.02;;;20.80;93.20;;;;;;10273190;28;20051;-68
2023/05/22 11:59:49;;;;;;;9.98;7.55;;;20.90;93.20;;;;;;10268876;28;20027;-68
2023/05/22 12:04:56;;;;;;;11.80;8.13;;;21.00;93.20;;;;;;10272160;28;20101;-69
2023/05/22 12:10:04;;;;;;;11.00;7.78;;;21.10;93.20;;;;;;10268707;28;20537;-69
2023/05/22 12:15:05;;;;;;;11.35;8.20;;;21.10;93.10;;;;;;10274010;28;20023;-68
2023/05/22 12:20:06;;;;;;;9.80;7.82;;;21.20;93.10;;;;;;10271367;28;20486;-68
2023/05/22 12:25:14;;;;;;;11.93;8.10;;;21.20;93.00;;;;;;10276861;28;20026;-69
2023/05/22 12:30:15;;;;;;;12.95;8.20;;;21.30;93.10;;;;;;10261317;28;20114;-69
2023/05/22 12:35:17;;;;;;;12.15;8.23;;;21.40;93.00;;;;;;10256551;28;20054;-69
2023/05/22 12:40:18;;;;;;;10.50;7.75;;;21.40;93.00;;;;;;10268021;28;20022;-71
2023/05/22 12:45:18;;;;;;;11.25;7.90;;;21.40;93.00;;;;;;10272747;28;20055;-68
2023/05/22 12:50:23;;;;;;;13.75;8.95;;;21.40;93.10;;;;;;10265969;28;20109;-69
2023/05/22 12:55:24;;;;;;;12.32;8.02;;;21.40;93.10;;;;;;10265809;28;20026;-69
2023/05/22 13:00:25;;;;;;;11.60;7.95;;;21.40;93.20;;;;;;10270490;28;20388;-68
2023/05/22 13:05:25;;;;;;;10.27;7.85;;;21.50;93.30;;;;;;10265616;28;20123;-69
2023/05/22 13:10:26;;;;;;;19.20;11.30;;;21.50;93.20;;;;;;10271811;28;20118;-72
2023/05/22 13:15:31;;;;;;;18.23;12.30;;;21.90;93.90;;;;;;10269129;28;20023;-72
2023/05/22 13:20:31;;;;;;;18.88;11.88;;;22.70;93.40;;;;;;10278122;28;20508;-73
2023/05/22 13:25:32;;;;;;;19.52;11.90;;;23.40;93.00;;;;;;10264155;28;20037;-73
2023/05/22 13:30:33;;;;;;;20.35;13.38;;;23.60;92.70;;;;;;10280357;28;20022;-73
2023/05/22 13:35:34;;;;;;;19.83;12.68;;;23.90;92.40;;;;;;10260925;28;20027;-73
2023/05/22 13:40:34;;;;;;;19.77;12.98;;;24.10;92.10;;;;;;10271303;28;20058;-73
2023/05/22 13:45:35;;;;;;;18.55;12.43;;;24.10;91.90;;;;;;10273477;28;20471;-73
2023/05/22 13:50:36;;;;;;;18.10;11.95;;;24.10;91.80;;;;;;10253647;28;20026;-73
2023/05/22 13:55:36;;;;;;;17.90;12.18;;;24.20;91.70;;;;;;10278104;28;20019;-73
2023/05/22 14:00:37;;;;;;;19.38;12.07;;;24.10;91.40;;;;;;10270769;28;20428;-73
2023/05/22 14:05:37;;;;;;;16.77;11.65;;;23.60;92.00;;;;;;10269011;28;20034;-73
2023/05/22 14:10:38;;;;;;;18.77;12.15;;;23.40;92.60;;;;;;10269657;28;20041;-73
2023/05/22 14:15:39;;;;;;;15.35;11.77;;;23.40;92.30;;;;;;10268710;28;20114;-74
2023/05/22 14:20:40;;;;;;;15.55;11.52;;;23.30;92.10;;;;;;10258430;28;20042;-74
2023/05/22 14:25:41;;;;;;;15.82;9.60;;;23.50;92.00;;;;;;10276374;28;20372;-72
2023/05/22 14:30:42;;;;;;;15.68;10.70;;;23.60;91.60;;;;;;10275606;28;20031;-70
2023/05/22 14:35:43;;;;;;;13.60;9.50;;;23.60;91.10;;;;;;10273981;28;20038;-73
2023/05/22 14:40:44;;;;;;;13.18;8.07;;;23.70;90.80;;;;;;10267436;28;20027;-73
2023/05/22 14:45:44;;;;;;;10.18;6.93;;;23.60;90.20;;;;;;10262061;28;20027;-72
2023/05/22 14:50:46;;;;;;;10.60;5.57;;;23.40;89.70;;;;;;10272870;28;20086;-73
2023/05/22 14:55:47;;;;;;;10.57;5.80;;;23.30;88.60;;;;;;10273127;28;20055;-72
2023/05/22 15:00:49;;;;;;;11.77;5.75;;;23.10;88.50;;;;;;10252352;28;20521;-73
2023/05/22 15:05:49;;;;;;;8.00;4.97;;;23.00;89.00;;;;;;10274152;28;20545;-73
2023/05/22 15:10:50;;;;;;;5.43;3.97;;;23.00;88.40;;;;;;10272232;28;20117;-72
2023/05/22 15:15:51;;;;;;;7.30;4.13;;;23.00;87.00;;;;;;10272354;28;20030;-72
2023/05/22 15:20:52;;;;;;;7.68;4.28;;;22.90;86.60;;;;;;10269752;28;20505;-72
2023/05/22 15:25:53;;;;;;;7.68;4.63;;;23.00;87.00;;;;;;10252962;28;20034;-72
2023/05/22 15:30:53;;;;;;;7.90;5.07;;;23.10;87.80;;;;;;10266716;28;20050;-73
2023/05/22 15:35:54;;;;;;;7.70;5.10;;;23.10;88.00;;;;;;10268947;28;20038;-72
2023/05/22 15:40:54;;;;;;;7.70;4.65;;;23.00;88.00;;;;;;10269336;28;20030;-72
2023/05/22 15:45:55;;;;;;;9.75;5.25;;;22.90;87.70;;;;;;10255761;28;20043;-72
2023/05/22 15:50:56;;;;;;;8.52;5.68;;;22.70;87.80;;;;;;10252601;28;20023;-72
2023/05/22 15:55:56;;;;;;;11.43;6.55;;;22.50;88.50;;;;;;10269983;28;20090;-72
2023/05/22 16:00:57;;;;;;;9.55;6.07;;;22.20;89.30;;;;;;10256714;28;20186;-72
2023/05/22 16:05:57;;;;;;;8.00;5.50;;;22.10;90.10;;;;;;10269835;28;20035;-73
2023/05/22 16:11:00;;;;;;;6.53;4.43;;;21.90;90.10;;;;;;10266689;28;20030;-72
2023/05/22 16:16:04;;;;;;;8.68;4.88;;;21.90;89.80;;;;;;10270065;28;20114;-73
2023/05/22 16:21:05;;;;;;;6.72;4.00;;;21.70;89.40;;;;;;10269823;28;20423;-71
2023/05/22 16:26:05;;;;;;;5.97;3.95;;;21.50;89.50;;;;;;10270002;28;20038;-73
2023/05/22 16:31:06;;;;;;;6.18;3.80;;;21.60;89.80;;;;;;10270545;28;20518;-74
2023/05/22 16:36:07;;;;;;;7.05;3.95;;;21.50;89.50;;;;;;10271022;28;20031;-71
2023/05/22 16:41:07;;;;;;;4.63;3.10;;;21.40;89.00;;;;;;10277144;28;20038;-71
2023/05/22 16:46:08;;;;;;;5.20;3.53;;;21.20;87.60;;;;;;10276643;28;20038;-71
2023/05/22 16:51:10;;;;;;;5.68;3.80;;;21.10;87.80;;;;;;10258757;28;20503;-71
2023/05/22 16:56:10;;;;;;;8.18;3.80;;;21.10;88.60;;;;;;10273810;28;20023;-71
2023/05/22 17:01:11;;;;;;;6.38;4.15;;;21.10;88.80;;;;;;10281415;28;20513;-71
2023/05/22 17:06:12;;;;;;;7.85;4.65;;;21.00;89.30;;;;;;10282038;28;20548;-71
2023/05/22 17:11:12;;;;;;;6.45;4.90;;;20.80;90.10;;;;;;10280883;28;20106;-71
2023/05/22 17:16:13;;;;;;;5.20;3.80;;;20.80;90.50;;;;;;10279083;28;20033;-71
2023/05/22 17:21:16;;;;;;;5.47;3.97;;;20.70;90.60;;;;;;10278128;28;20019;-72
2023/05/22 17:26:16;;;;;;;7.00;3.92;;;20.60;90.70;;;;;;10279574;28;20022;-71
2023/05/22 17:31:17;;;;;;;5.38;3.60;;;20.50;90.80;;;;;;10280152;28;20367;-71
2023/05/22 17:36:17;;;;;;;6.78;3.65;;;20.40;90.90;;;;;;10267966;28;20031;-73
2023/05/22 17:41:18;;;;;;;6.07;3.30;;;20.10;90.90;;;;;;10262224;28;20019;-73
2023/05/22 17:46:19;;;;;;;5.00;3.38;;;20.10;91.00;;;;;;10267446;28;20039;-72
2023/05/22 17:51:20;;;;;;;6.95;3.65;;;20.00;91.10;;;;;;10264934;28;20039;-73
2023/05/22 17:56:22;;;;;;;6.53;3.63;;;19.90;91.40;;;;;;10277489;28;20023;-71
2023/05/22 18:01:23;;;;;;;9.80;4.50;;;19.90;91.60;;;;;;10274966;28;20027;-72
2023/05/22 18:06:24;;;;;;;8.95;3.95;;;19.90;91.70;;;;;;10268752;28;20030;-72
2023/05/22 18:11:25;;;;;;;5.30;3.30;;;19.80;91.60;;;;;;10276497;28;20117;-73
2023/05/22 18:16:25;;;;;;;4.60;3.17;;;19.70;91.50;;;;;;10272350;28;20033;-73
2023/05/22 18:21:27;;;;;;;6.97;4.20;;;19.50;91.60;;;;;;10278675;28;20030;-72
2023/05/22 18:26:28;;;;;;;7.28;4.25;;;19.40;91.80;;;;;;10276988;28;20089;-72
2023/05/22 18:31:29;;;;;;;7.80;4.07;;;19.30;91.90;;;;;;10260218;28;20018;-72
2023/05/22 18:36:30;;;;;;;6.85;4.75;;;19.30;92.10;;;;;;10279517;28;20031;-73
2023/05/22 18:41:31;;;;;;;7.00;4.80;;;19.30;92.20;;;;;;10278298;28;20015;-72
2023/05/22 18:46:31;;;;;;;6.30;4.35;;;19.40;92.30;;;;;;10278970;28;20030;-72
2023/05/22 18:51:32;;;;;;;8.20;4.68;;;19.40;92.40;;;;;;10277898;28;20106;-72
2023/05/22 18:56:32;;;;;;;6.57;3.95;;;19.40;92.50;;;;;;10272588;28;20114;-72
2023/05/22 19:01:33;;;;;;;6.80;4.80;;;19.50;92.60;;;;;;10271009;28;20039;-73
2023/05/22 19:06:34;;;;;;;6.55;4.25;;;19.50;92.70;;;;;;10279199;28;20063;-73
2023/05/22 19:11:35;;;;;;;8.57;4.82;;;19.40;92.90;;;;;;10259096;28;20046;-73
2023/05/22 19:16:36;;;;;;;8.60;5.15;;;19.30;93.10;;;;;;10261060;28;20027;-72
2023/05/22 19:21:37;;;;;;;8.32;4.50;;;19.30;93.20;;;;;;10277064;28;20105;-74
2023/05/22 19:26:38;;;;;;;9.40;6.07;;;19.30;93.40;;;;;;10273315;28;20094;-73
2023/05/22 19:31:38;;;;;;;8.63;6.20;;;19.10;93.60;;;;;;10278304;28;20049;-71
2023/05/22 19:36:39;;;;;;;9.18;5.60;;;18.80;94.00;;;;;;10276068;28;20041;-72
2023/05/22 19:41:39;;;;;;;9.82;6.13;;;19.00;94.00;;;;;;10259869;28;20106;-70
2023/05/22 19:46:40;;;;;;;9.10;6.30;;;18.80;94.20;;;;;;10272375;28;20022;-72
2023/05/22 19:51:41;;;;;;;16.23;6.50;;;18.60;94.50;;;;;;10270468;28;20035;-67
2023/05/22 19:56:42;;;;;;;10.98;5.95;;;18.70;94.60;;;;;;10272764;28;20035;-67
2023/05/22 20:01:42;;;;;;;9.95;5.50;;;18.90;94.40;;;;;;10254541;28;20070;-67
2023/05/22 20:06:44;;;;;;;7.45;5.60;;;19.30;94.10;;;;;;10270728;28;20039;-67
2023/05/22 20:11:44;;;;;;;8.82;5.97;;;19.40;93.80;;;;;;10269600;28;20038;-68
2023/05/22 20:16:47;;;;;;;10.00;5.63;;;19.50;93.60;;;;;;10251176;28;20035;-67
2023/05/22 20:21:48;;;;;;;9.55;5.70;;;19.60;93.50;;;;;;10255498;28;20030;-68
2023/05/22 20:26:49;;;;;;;10.40;5.20;;;19.80;93.30;;;;;;10268943;28;20026;-68
2023/05/22 20:31:53;;;;;;;8.18;5.15;;;19.90;93.20;;;;;;10272363;28;20038;-70
2023/05/22 20:36:53;;;;;;;12.15;5.15;;;19.90;93.10;;;;;;10268386;28;20406;-70
2023/05/22 20:41:54;;;;;;;7.18;4.78;;;19.90;93.00;;;;;;10274340;28;20038;-69
2023/05/22 20:46:55;;;;;;;9.68;5.65;;;20.00;93.00;;;;;;10273265;28;20054;-69
2023/05/22 20:51:58;;;;;;;11.40;4.63;;;20.00;92.90;;;;;;10275115;28;20035;-70
2023/05/22 20:57:00;;;;;;;9.23;4.93;;;20.00;92.90;;;;;;10274545;28;20486;-69
2023/05/22 21:02:00;;;;;;;6.82;4.40;;;20.00;92.80;;;;;;10275736;28;20498;-70
2023/05/22 21:07:02;;;;;;;6.75;4.68;;;20.10;92.80;;;;;;10271701;28;20050;-70
2023/05/22 21:12:03;;;;;;;8.70;4.47;;;20.00;92.70;;;;;;10272664;28;20307;-69
2023/05/22 21:17:03;;;;;;;7.10;4.68;;;20.00;92.70;;;;;;10270732;28;20033;-69
2023/05/22 21:22:04;;;;;;;7.25;3.97;;;20.00;92.60;;;;;;10269881;28;20521;-68
2023/05/22 21:27:04;;;;;;;5.10;3.65;;;20.00;92.60;;;;;;10278349;28;20467;-69
2023/05/22 21:32:06;;;;;;;8.38;4.00;;;20.00;92.50;;;;;;10272393;28;20082;-70
2023/05/22 21:37:07;;;;;;;6.03;4.22;;;20.00;92.50;;;;;;10278618;28;20051;-69
2023/05/22 21:42:08;;;;;;;6.60;4.60;;;20.00;92.50;;;;;;10280484;28;20026;-69
2023/05/22 21:47:09;;;;;;;5.72;4.00;;;19.90;92.40;;;;;;10271959;28;20031;-69
2023/05/22 21:52:10;;;;;;;6.25;4.40;;;19.80;92.40;;;;;;10278609;28;20363;-69
2023/05/22 21:57:10;;;;;;;6.88;4.25;;;19.90;92.40;;;;;;10274196;28;20088;-69
2023/05/22 22:02:11;;;;;;;5.90;3.83;;;19.90;92.40;;;;;;10275225;28;20406;-69
2023/05/22 22:07:12;;;;;;;6.88;4.30;;;19.80;92.40;;;;;;10267991;28;20045;-69
2023/05/22 22:12:13;;;;;;;6.88;4.43;;;19.80;92.30;;;;;;10275083;28;20030;-69
2023/05/22 22:17:15;;;;;;;8.88;4.75;;;19.80;92.30;;;;;;10273659;28;20050;-68
2023/05/22 22:22:15;;;;;;;6.75;4.22;;;19.80;92.30;;;;;;10272117;28;20019;-69
2023/05/22 22:27:16;;;;;;;6.60;4.30;;;19.80;92.30;;;;;;10278899;28;20039;-69
2023/05/22 22:32:17;;;;;;;6.38;4.30;;;19.70;92.20;;;;;;10278890;28;20170;-69
2023/05/22 22:37:19;;;;;;;7.57;4.35;;;19.80;92.20;;;;;;10273134;28;20077;-68
2023/05/22 22:42:20;;;;;;;7.65;4.30;;;19.70;92.20;;;;;;10274321;28;20451;-68
2023/05/22 22:47:20;;;;;;;5.13;3.95;;;19.70;92.20;;;;;;10278883;28;20026;-69
2023/05/22 22:52:22;;;;;;;7.13;4.53;;;19.70;92.20;;;;;;10273347;28;20030;-69
2023/05/22 22:57:22;;;;;;;7.10;4.72;;;19.70;92.20;;;;;;10270666;28;20065;-68
2023/05/22 23:02:23;;;;;;;7.15;4.90;;;19.60;92.20;;;;;;10273267;28;20110;-68
2023/05/22 23:07:24;;;;;;;6.85;4.75;;;19.60;92.20;;;;;;10250964;28;20090;-69
2023/05/22 23:12:24;;;;;;;8.90;4.95;;;19.60;92.20;;;;;;10275119;28;20023;-69
2023/05/22 23:17:25;;;;;;;8.70;5.43;;;19.60;92.20;;;;;;10274385;28;20398;-69
2023/05/22 23:22:26;;;;;;;7.45;5.00;;;19.50;92.10;;;;;;10267086;28;20026;-69
2023/05/22 23:27:26;;;;;;;7.78;4.93;;;19.50;92.20;;;;;;10266898;28;20041;-69
2023/05/22 23:32:27;;;;;;;8.20;5.50;;;19.50;92.20;;;;;;10275079;28;20085;-69
2023/05/22 23:37:28;;;;;;;8.57;5.70;;;19.40;92.10;;;;;;10271306;28;20038;-69
2023/05/22 23:42:28;;;;;;;8.18;5.70;;;19.40;92.10;;;;;;10254735;28;20030;-69
2023/05/22 23:47:29;;;;;;;10.20;6.00;;;19.40;92.10;;;;;;10276577;28;20482;-68
2023/05/22 23:52:29;;;;;;;8.73;5.53;;;19.40;92.20;;;;;;10274501;28;20084;-68
2023/05/22 23:57:30;;;;;;;7.85;5.43;;;19.40;92.40;;;;;;10273187;28;20034;-69
